| time (UTC) | temp F | wind direction | speed MPH | gust MPH | rain 1hr in | rain 24hr in | rain mn in | humidity % | barometer mb |
| 20260508170052 | 66 | 221 | 12.0 | 21.0 | 0.00 | 0.00 | 0.00 | 38 | 1014.0 |
| 20260508164551 | 66 | 196 | 8.0 | 26.0 | 0.00 | 0.00 | 0.00 | 39 | 1014.2 |
| 20260508163048 | 65 | 207 | 9.0 | 20.0 | 0.00 | 0.00 | 0.00 | 40 | 1014.6 |
| 20260508161547 | 64 | 196 | 8.0 | 21.0 | 0.00 | 0.00 | 0.00 | 40 | 1014.7 |
| 20260508160043 | 64 | 231 | 12.0 | 21.0 | 0.00 | 0.00 | 0.00 | 40 | 1014.9 |
| 20260508154541 | 63 | 269 | 12.0 | 21.0 | 0.00 | 0.00 | 0.00 | 42 | 1014.9 |
| 20260508153045 | 62 | 232 | 9.0 | 18.0 | 0.00 | 0.00 | 0.00 | 41 | 1015.3 |
| 20260508151536 | 62 | 229 | 14.0 | 18.0 | 0.00 | 0.00 | 0.00 | 43 | 1015.4 |
| 20260508150034 | 61 | 231 | 14.0 | 23.0 | 0.00 | 0.00 | 0.00 | 42 | 1015.5 |
| 20260508144532 | 60 | 227 | 11.0 | 21.0 | 0.00 | 0.00 | 0.00 | 44 | 1015.5 |
| 20260508143029 | 58 | 229 | 15.0 | 21.0 | 0.00 | 0.00 | 0.00 | 45 | 1015.7 |
| 20260508141524 | 57 | 201 | 11.0 | 20.0 | 0.00 | 0.00 | 0.00 | 46 | 1015.7 |
| 20260508140026 | 56 | 191 | 13.0 | 21.0 | 0.00 | 0.00 | 0.00 | 44 | 1015.7 |
| 20260508134517 | 56 | 229 | 13.0 | 19.0 | 0.00 | 0.00 | 0.00 | 45 | 1015.8 |
| 20260508133015 | 54 | 213 | 13.0 | 19.0 | 0.00 | 0.00 | 0.00 | 47 | 1015.9 |
| 20260508131511 | 54 | 228 | 9.0 | 17.0 | 0.00 | 0.00 | 0.00 | 50 | 1015.8 |
| 20260508130009 | 51 | 222 | 4.0 | 9.0 | 0.00 | 0.00 | 0.00 | 52 | 1016.0 |
| 20260508124507 | 49 | 200 | 5.0 | 11.0 | 0.00 | 0.00 | 0.00 | 53 | 1015.8 |
| 20260508123004 | 50 | 208 | 5.0 | 10.0 | 0.00 | 0.00 | 0.00 | 51 | 1016.1 |
| 20260508121602 | 50 | 202 | 5.0 | 12.0 | 0.00 | 0.00 | 0.00 | 52 | 1016.0 |
| 20260508120057 | 49 | 204 | 5.0 | 8.0 | 0.00 | 0.00 | 0.00 | 53 | 1015.7 |
| 20260508114553 | 47 | 194 | 4.0 | 8.0 | 0.00 | 0.00 | 0.00 | 55 | 1015.6 |
| 20260508113052 | 47 | 221 | 5.0 | 11.0 | 0.00 | 0.00 | 0.00 | 54 | 1015.6 |
| 20260508111554 | 46 | 211 | 6.0 | 9.0 | 0.00 | 0.00 | 0.00 | 54 | 1015.5 |
| 20260508110051 | 46 | 184 | 7.0 | 9.0 | 0.00 | 0.00 | 0.00 | 55 | 1015.3 |
| 20260508104548 | 44 | 205 | 3.0 | 8.0 | 0.00 | 0.00 | 0.00 | 57 | 1015.8 |
| 20260508103049 | 44 | 219 | 3.0 | 7.0 | 0.00 | 0.00 | 0.00 | 58 | 1015.4 |
| 20260508101548 | 44 | 218 | 5.0 | 8.0 | 0.00 | 0.00 | 0.00 | 57 | 1015.3 |
| 20260508100046 | 44 | 215 | 3.0 | 6.0 | 0.00 | 0.00 | 0.00 | 57 | 1015.2 |
| 20260508094551 | 44 | 209 | 5.0 | 8.0 | 0.00 | 0.00 | 0.00 | 57 | 1015.2 |
| 20260508093045 | 43 | 219 | 3.0 | 6.0 | 0.00 | 0.00 | 0.00 | 59 | 1015.3 |
| 20260508091543 | 43 | 220 | 5.0 | 7.0 | 0.00 | 0.00 | 0.00 | 59 | 1015.4 |
| 20260508090044 | 43 | 221 | 5.0 | 7.0 | 0.00 | 0.00 | 0.00 | 57 | 1015.3 |
| 20260508084542 | 43 | 223 | 5.0 | 8.0 | 0.00 | 0.00 | 0.00 | 58 | 1015.2 |
| 20260508083041 | 43 | 225 | 4.0 | 7.0 | 0.00 | 0.00 | 0.00 | 58 | 1015.1 |
| 20260508081543 | 43 | 220 | 4.0 | 7.0 | 0.00 | 0.00 | 0.00 | 59 | 1015.2 |
| 20260508080046 | 44 | 222 | 5.0 | 8.0 | 0.00 | 0.00 | 0.00 | 57 | 1015.1 |
| 20260508074538 | 44 | 212 | 5.0 | 7.0 | 0.00 | 0.00 | 0.00 | 56 | 1015.0 |
| 20260508073037 | 43 | 218 | 4.0 | 6.0 | 0.00 | 0.00 | 0.00 | 58 | 1015.1 |
| 20260508071535 | 44 | 218 | 5.0 | 8.0 | 0.00 | 0.00 | 0.00 | 57 | 1015.2 |
| 20260508070032 | 44 | 223 | 6.0 | 9.0 | 0.00 | 0.00 | 0.00 | 56 | 1015.3 |
| 20260508064529 | 44 | 215 | 7.0 | 11.0 | 0.00 | 0.00 | 0.00 | 57 | 1015.5 |
| 20260508063026 | 45 | 219 | 6.0 | 9.0 | 0.00 | 0.00 | 0.00 | 56 | 1015.5 |
| 20260508061527 | 45 | 207 | 4.0 | 9.0 | 0.00 | 0.00 | 0.00 | 54 | 1015.6 |
| 20260508060028 | 46 | 217 | 5.0 | 9.0 | 0.00 | 0.00 | 0.00 | 54 | 1015.6 |
| 20260508054524 | 46 | 225 | 6.0 | 10.0 | 0.00 | 0.00 | 0.00 | 53 | 1015.6 |
| 20260508053030 | 47 | 202 | 7.0 | 11.0 | 0.00 | 0.00 | 0.00 | 52 | 1015.6 |
| 20260508051528 | 46 | 205 | 5.0 | 10.0 | 0.00 | 0.00 | 0.00 | 53 | 1015.5 |
| 20260508050021 | 47 | 229 | 4.0 | 7.0 | 0.00 | 0.00 | 0.00 | 52 | 1015.5 |
| 20260508044518 | 46 | 191 | 7.0 | 9.0 | 0.00 | 0.00 | 0.00 | 54 | 1015.5 |
| 20260508043017 | 45 | 191 | 6.0 | 8.0 | 0.00 | 0.00 | 0.00 | 57 | 1015.5 |
| 20260508041513 | 45 | 192 | 6.0 | 8.0 | 0.00 | 0.00 | 0.00 | 56 | 1015.6 |
| 20260508040013 | 45 | 190 | 6.0 | 8.0 | 0.00 | 0.00 | 0.00 | 56 | 1015.6 |
| 20260508034510 | 45 | 194 | 6.0 | 7.0 | 0.00 | 0.00 | 0.00 | 57 | 1015.6 |
| 20260508033009 | 45 | 191 | 5.0 | 7.0 | 0.00 | 0.00 | 0.00 | 56 | 1015.5 |
| 20260508031508 | 45 | 184 | 3.0 | 5.0 | 0.00 | 0.00 | 0.00 | 57 | 1015.5 |
| 20260508030009 | 46 | 186 | 2.0 | 5.0 | 0.00 | 0.00 | 0.00 | 56 | 1015.5 |
| 20260508024510 | 46 | 183 | 2.0 | 5.0 | 0.00 | 0.00 | 0.00 | 55 | 1015.6 |
| 20260508023011 | 46 | 178 | 2.0 | 5.0 | 0.00 | 0.00 | 0.00 | 54 | 1015.7 |
| 20260508021507 | 46 | 194 | 3.0 | 4.0 | 0.00 | 0.00 | 0.00 | 55 | 1015.6 |
| 20260508020107 | 47 | 212 | 1.0 | 4.0 | 0.00 | 0.00 | 0.00 | 54 | 1015.8 |
| 20260508014505 | 47 | 221 | 1.0 | 2.0 | 0.00 | 0.00 | 0.00 | 52 | 1015.6 |
| 20260508013005 | 47 | 221 | 0.0 | 2.0 | 0.00 | 0.00 | 0.00 | 53 | 1015.5 |
| 20260508011504 | 48 | 221 | 0.0 | 2.0 | 0.00 | 0.00 | 0.00 | 52 | 1015.5 |
| 20260508010007 | 49 | 244 | 0.0 | 3.0 | 0.00 | 0.00 | 0.00 | 53 | 1015.4 |
| 20260508004503 | 51 | 247 | 1.0 | 3.0 | 0.00 | 0.00 | 0.00 | 46 | 1015.4 |
| 20260508003003 | 53 | 248 | 2.0 | 4.0 | 0.00 | 0.00 | 0.00 | 43 | 1015.4 |
| 20260508001502 | 54 | 274 | 0.0 | 3.0 | 0.00 | 0.00 | 0.00 | 35 | 1015.3 |
| 20260508000006 | 55 | 271 | 2.0 | 6.0 | 0.00 | 0.00 | 0.00 | 31 | 1015.2 |
| 20260507234504 | 56 | 265 | 2.0 | 6.0 | 0.00 | 0.00 | 0.00 | 29 | 1014.8 |
| 20260507233002 | 56 | 273 | 3.0 | 7.0 | 0.00 | 0.00 | 0.00 | 32 | 1014.8 |
| 20260507231606 | 57 | 321 | 3.0 | 6.0 | 0.00 | 0.00 | 0.00 | 29 | 1014.8 |
| 20260507230101 | 57 | 325 | 8.0 | 10.0 | 0.00 | 0.00 | 0.00 | 29 | 1014.9 |
| 20260507224602 | 56 | 321 | 4.0 | 9.0 | 0.00 | 0.00 | 0.00 | 32 | 1014.9 |
| 20260507223110 | 57 | 319 | 9.0 | 16.0 | 0.00 | 0.00 | 0.00 | 30 | 1015.0 |
| 20260507221557 | 58 | 259 | 4.0 | 11.0 | 0.00 | 0.00 | 0.00 | 28 | 1015.2 |
| 20260507220056 | 57 | 296 | 6.0 | 15.0 | 0.00 | 0.00 | 0.00 | 30 | 1015.3 |
| 20260507214559 | 58 | 271 | 6.0 | 15.0 | 0.00 | 0.00 | 0.00 | 30 | 1015.1 |
| 20260507213055 | 57 | 317 | 3.0 | 18.0 | 0.00 | 0.00 | 0.00 | 31 | 1015.1 |
| 20260507211553 | 56 | 306 | 8.0 | 17.0 | 0.00 | 0.00 | 0.00 | 33 | 1015.0 |
| 20260507210052 | 56 | 311 | 3.0 | 12.0 | 0.00 | 0.00 | 0.00 | 32 | 1015.0 |
| 20260507204551 | 57 | 329 | 5.0 | 16.0 | 0.00 | 0.00 | 0.00 | 31 | 1015.0 |
| 20260507203057 | 57 | 318 | 6.0 | 15.0 | 0.00 | 0.00 | 0.00 | 33 | 1014.9 |
| 20260507201549 | 56 | 344 | 9.0 | 17.0 | 0.00 | 0.00 | 0.00 | 30 | 1014.9 |
| 20260507200051 | 56 | 325 | 11.0 | 19.0 | 0.00 | 0.00 | 0.00 | 32 | 1014.8 |
| 20260507194547 | 57 | 325 | 5.0 | 13.0 | 0.00 | 0.00 | 0.00 | 34 | 1015.0 |
| 20260507193052 | 57 | 313 | 9.0 | 16.0 | 0.00 | 0.00 | 0.00 | 30 | 1015.1 |
| 20260507191544 | 56 | 264 | 9.0 | 16.0 | 0.00 | 0.00 | 0.00 | 35 | 1015.0 |
| 20260507190043 | 57 | 324 | 10.0 | 15.0 | 0.00 | 0.00 | 0.00 | 34 | 1015.1 |
| 20260507184544 | 57 | 327 | 9.0 | 15.0 | 0.00 | 0.00 | 0.00 | 31 | 1015.3 |
| 20260507183043 | 56 | 289 | 7.0 | 14.0 | 0.00 | 0.00 | 0.00 | 32 | 1015.0 |
| 20260507181537 | 56 | 306 | 5.0 | 13.0 | 0.00 | 0.00 | 0.00 | 35 | 1015.1 |
| 20260507180041 | 55 | 258 | 10.0 | 14.0 | 0.00 | 0.00 | 0.00 | 32 | 1015.3 |
| 20260507174535 | 55 | 298 | 6.0 | 12.0 | 0.00 | 0.00 | 0.00 | 33 | 1015.4 |
| 20260507173034 | 55 | 285 | 5.0 | 16.0 | 0.00 | 0.00 | 0.00 | 37 | 1015.6 |
| 20260507171530 | 55 | 293 | 4.0 | 10.0 | 0.00 | 0.00 | 0.00 | 36 | 1016.0 |